CSUN New Campus Station -PST Time - Most Recent Data on bottom of page




           Date/Time      Avg      Avg      Max     Wind      Avg      Max      Min      Avg      Avg    Total      Avg     Batt
                         Wind     Wind     Wind      Dir     Temp     Temp     Temp       RH      Bar     Rain    Solar     Volt
                      Spd MPH      Dir  Spd MPH   at Max    Deg_F    Deg_F    Deg_F        % Press_mb   Inches     W/m2      Min
--------------------------------------------------------------------------------------------------------------------------------
    04/21/2018 00:00      1.5      304      3.5      176     55.2     55.5     54.9       71     1018     0.00        0     13.3
    04/21/2018 00:15      0.9      308      2.1      273     54.8     55.3     54.4       72     1018     0.00        0     13.3
    04/21/2018 00:30      1.2      314      2.5      337     54.3     54.6     54.0       73     1017     0.00        0     13.3
    04/21/2018 00:45      0.8      328      2.5      345     54.2     54.7     53.8       73     1017     0.00        0     13.4
    04/21/2018 01:00      1.0        6      3.0      339     54.0     54.3     53.6       73     1017     0.00        0     13.4
    04/21/2018 01:15      1.6       20      4.3       44     54.0     54.8     53.4       71     1017     0.00        0     13.4
    04/21/2018 01:30      0.9      321      3.1       26     54.3     54.9     53.5       72     1017     0.00        0     13.4
    04/21/2018 01:45      0.4      265      1.4      289     53.0     53.6     52.5       75     1017     0.00        0     13.4
    04/21/2018 02:00      0.5      298      1.4      289     52.4     52.9     51.9       76     1017     0.00        0     13.4
    04/21/2018 02:15      0.8      259      2.0      218     51.8     52.1     51.5       77     1016     0.00        0     13.4
    04/21/2018 02:30      0.2      296      0.8      276     51.8     52.1     51.4       77     1016     0.00        0     13.4
    04/21/2018 02:45      0.9      303      3.1      180     51.4     51.7     51.1       77     1016     0.00        0     13.4
    04/21/2018 03:00      1.3      205      4.5      160     50.7     51.1     50.3       79     1016     0.00        0     13.4
    04/21/2018 03:15      1.2      265      2.6      250     50.5     50.7     50.3       79     1016     0.00        0     13.4
    04/21/2018 03:30      1.2      269      3.9      201     50.6     50.8     50.4       79     1016     0.00        0     13.4
    04/21/2018 03:45      1.2      307      2.6      285     50.8     51.1     50.5       78     1016     0.00        0     13.4
    04/21/2018 04:00      1.2      325      2.0      338     50.7     51.0     50.4       79     1016     0.00        0     13.4
    04/21/2018 04:15      1.5      319      2.6      343     50.7     51.0     50.3       76     1016     0.00        0     13.4
    04/21/2018 04:30      0.8       21      2.5      337     50.6     51.0     50.2       76     1016     0.00        0     13.4
    04/21/2018 04:45      0.3       52      1.8       51     49.6     50.3     49.3       79     1016     0.00        0     13.4
    04/21/2018 05:00      0.3      279      1.6      284     49.3     49.6     49.0       80     1016     0.00        0     13.4
    04/21/2018 05:15      1.4      341      2.7      336     49.7     50.2     49.4       78     1016     0.00        1     13.4
    04/21/2018 05:30      0.9      335      2.8      341     50.1     50.7     49.5       78     1016     0.00        6     13.4
    04/21/2018 05:45      1.4      165      4.8      149     49.6     49.8     49.3       79     1016     0.00       14     13.4
    04/21/2018 06:00      1.6      287      3.2      182     50.0     50.6     49.4       77     1017     0.00       21     13.4
    04/21/2018 06:15      2.3      260      4.2      251     51.3     52.6     50.3       75     1017     0.00       80     13.4
    04/21/2018 06:30      2.3      268      3.9      299     53.6     54.5     52.5       70     1017     0.00      160     13.4
    04/21/2018 06:45      1.5      265      4.0      234     55.8     57.1     54.4       66     1017     0.00      202     13.3
    04/21/2018 07:00      0.7      231      2.3      185     58.8     60.0     56.9       57     1017     0.00      255     13.3
    04/21/2018 07:15      1.1      201      2.5      154     61.4     62.9     59.8       52     1017     0.00      305     13.3
    04/21/2018 07:30      1.3      226      2.9      250     64.0     65.0     62.7       47     1017     0.00      356     13.2
    04/21/2018 07:45      1.7      245      3.3      240     65.9     66.5     64.7       42     1017     0.00      405     13.2
    04/21/2018 08:00      0.9      243      2.4      178     67.6     68.5     66.2       35     1017     0.00      456     13.2
    04/21/2018 08:15      1.9      192      3.9      197     69.0     69.9     68.2       32     1017     0.00      504     13.1
    04/21/2018 08:30      1.9      203      4.2      190     70.7     71.2     69.7       30     1017     0.00      550     13.1
    04/21/2018 08:45      1.8      194      4.4      174     71.6     72.2     70.6       30     1017     0.00      593     13.1
    04/21/2018 09:00      1.5      211      3.4      223     72.5     73.3     71.4       28     1017     0.00      634     13.1
    04/21/2018 09:15      2.2      204      5.5      192     73.8     74.8     72.7       28     1017     0.00      674     13.0
    04/21/2018 09:30      2.7      201      5.3      167     75.6     76.5     74.7       25     1017     0.00      710     13.0
    04/21/2018 09:45      3.5      177      7.5      172     76.2     77.2     75.3       25     1017     0.00      745     13.0
    04/21/2018 10:00      3.4      171      6.0      162     78.0     79.1     77.1       22     1017     0.00      775     13.0
    04/21/2018 10:15      2.9      152      7.0      168     79.6     80.2     78.8       20     1016     0.00      803     13.0
    04/21/2018 10:30      2.1      174      4.6      196     80.8     81.6     80.0       19     1016     0.00      827     13.0
    04/21/2018 10:45      2.8      211      5.8      190     81.9     82.3     81.4       16     1016     0.00      846     13.0
    04/21/2018 11:00      2.5      258      5.8      252     82.8     83.6     82.0       16     1016     0.00      865     12.9
    04/21/2018 11:15      1.6      262      4.6      277     84.3     85.5     83.1       14     1016     0.00      888     12.9
    04/21/2018 11:30      2.6      205      8.0      134     86.2     86.9     85.4       12     1016     0.00      874     12.9
    04/21/2018 11:45      2.8      173      6.3      244     86.3     87.0     85.7       10     1016     0.00      905     12.9
    04/21/2018 12:00      4.5      188      9.3      175     86.7     87.2     86.0       12     1015     0.00      951     12.9
    04/21/2018 12:15      3.8      158      8.1      184     87.2     87.7     86.4       10     1015     0.00      834     12.9
    04/21/2018 12:30      5.8      168     10.4      148     86.0     86.8     85.2       11     1015     0.00      629     12.9
    04/21/2018 12:45      3.6      148      8.7      146     87.8     88.7     86.6        9     1015     0.00      858     12.9
    04/21/2018 13:00      3.1      143     11.2      181     88.2     89.5     87.4       11     1015     0.00      938     12.9
    04/21/2018 13:15      3.8      190      8.4      169     89.3     90.3     88.6        9     1015     0.00      882     12.9
    04/21/2018 13:30      3.9      162      9.6      155     88.9     89.9     88.1        9     1014     0.00      849     12.9
    04/21/2018 13:45      2.6      169      8.6      165     89.3     89.9     88.2       10     1014     0.00      808     12.9
    04/21/2018 14:00      4.5      243     12.1      277     89.1     89.9     88.4       13     1014     0.00      793     12.9
    04/21/2018 14:15      4.9      287     12.2      252     89.2     89.7     88.5       13     1014     0.00      765     12.9
    04/21/2018 14:30      7.5      268     15.9      259     88.0     88.8     87.2       13     1014     0.00      718     12.9
    04/21/2018 14:45      7.5      274     15.0      249     86.9     87.5     86.5       13     1013     0.00      650     12.9
    04/21/2018 15:00      6.5      269     12.8      246     87.0     87.6     86.2       13     1013     0.00      558     12.9
    04/21/2018 15:15      6.8      274     12.9      269     86.8     87.3     85.9       13     1013     0.00      702     12.9
    04/21/2018 15:30      7.0      286     13.9      325     86.3     87.0     85.7       14     1013     0.00      482     12.9
    04/21/2018 15:45      8.0      274     15.7      249     85.2     85.8     84.4       12     1013     0.00      378     12.9
    04/21/2018 16:00      6.8      275     16.0      242     84.6     84.8     84.4       12     1013     0.00      300     12.9
    04/21/2018 16:15      6.6      272     13.5      255     84.0     84.5     83.6       11     1013     0.00      220     12.9
    04/21/2018 16:30      7.6      270     15.3      257     83.4     83.9     83.1       12     1013     0.00      188     13.0
    04/21/2018 16:45      6.1      271     16.5      265     82.8     83.2     82.4       14     1013     0.00      161     13.0
    04/21/2018 17:00      5.8      278     11.7      244     82.3     82.7     81.6       15     1013     0.00      135     13.0
    04/21/2018 17:15      6.1      268     12.3      244     81.5     81.8     81.0       15     1013     0.00      113     13.0
    04/21/2018 17:30      5.9      270     12.3      257     80.8     81.3     80.1       17     1013     0.00       87     13.0
    04/21/2018 17:45      6.9      261     13.3      256     79.8     80.4     79.1       18     1013     0.00       63     13.0
    04/21/2018 18:00      6.5      259     12.8      247     78.8     79.3     78.3       21     1013     0.00       45     13.0
    04/21/2018 18:15      5.3      256      9.3      243     78.1     78.5     77.5       22     1013     0.00       31     13.0
    04/21/2018 18:30      4.5      247     10.6      258     77.1     77.8     76.2       23     1013     0.00       11     13.1
    04/21/2018 18:45      2.6      236      5.6      234     75.5     76.3     75.0       22     1013     0.00        2     13.1
    04/21/2018 19:00      4.5      257      8.5      237     75.4     75.7     75.1       22     1013     0.00        0     13.1
    04/21/2018 19:15      4.4      256      6.9      241     74.9     75.3     74.6       21     1013     0.00        0     13.1
    04/21/2018 19:30      2.7      252      6.6      234     74.8     75.0     74.1       22     1014     0.00        0     13.1
    04/21/2018 19:45      1.7      225      3.8      262     73.2     74.3     72.5       25     1014     0.00        0     13.1
    04/21/2018 20:00      0.8      234      2.1      211     72.3     72.7     71.6       28     1014     0.00        0     13.1
    04/21/2018 20:15      1.2      262      2.1      257     71.0     71.7     70.4       29     1014     0.00        0     13.1
    04/21/2018 20:30      1.5      292      2.9      354     70.1     70.4     69.8       30     1014     0.00        0     13.1
    04/21/2018 20:45      1.4      329      3.1      332     70.5     70.9     70.2       28     1014     0.00        0     13.2
    04/21/2018 21:00      1.4      348      2.7      339     70.3     70.8     69.7       27     1014     0.00        0     13.2
    04/21/2018 21:15      1.1      317      4.0      289     69.8     70.5     69.2       31     1014     0.00        0     13.2
    04/21/2018 21:30      0.7        4      2.3       34     68.7     69.5     68.3       31     1014     0.00        0     13.2
    04/21/2018 21:45      0.2        6      1.1       23     67.9     68.5     67.4       33     1014     0.00        0     13.2
    04/21/2018 22:00      0.4      287      2.0      286     67.1     67.6     66.8       33     1014     0.00        0     13.2
    04/21/2018 22:15      0.5      300      1.8      312     66.6     67.0     66.2       34     1014     0.00        0     13.2
    04/21/2018 22:30      0.9      273      1.7      284     65.9     66.3     65.6       35     1014     0.00        0     13.2
    04/21/2018 22:45      1.5      321      3.2      339     66.1     66.8     65.6       35     1014     0.00        0     13.2
    04/21/2018 23:00      1.0      309      2.4      305     65.9     66.4     65.4       35     1014     0.00        0     13.2
    04/21/2018 23:15      1.8      333      2.9      332     66.1     67.1     65.3       31     1014     0.00        0     13.2
    04/21/2018 23:30      1.2       83      3.0      156     67.0     67.6     65.9       33     1014     0.00        0     13.2
    04/21/2018 23:45      2.0      116      3.5      129     66.1     66.4     65.7       34     1014     0.00        0     13.2
    04/22/2018 00:00      1.6      110      4.6      129     65.3     66.0     64.8       42     1014     0.00        0     13.2
    04/22/2018 00:15      1.2      122      3.3       93     64.2     65.0     63.1       52     1014     0.00        0     13.2
    04/22/2018 00:30      0.6      136      2.6      157     62.8     63.3     62.2       56     1014     0.00        0     13.2
    04/22/2018 00:45      0.4      101      2.5       59     61.7     62.5     61.1       60     1014     0.00        0     13.3
    04/22/2018 01:00      0.5      276      2.6      337     60.9     61.3     60.6       61     1014     0.00        0     13.3
    04/22/2018 01:15      0.7      311      2.3      336     60.6     60.9     60.2       61     1013     0.00        0     13.3
    04/22/2018 01:30      0.5      279      1.4      316     59.8     60.4     59.4       62     1013     0.00        0     13.3
    04/22/2018 01:45      0.8      337      2.2      349     59.3     59.7     58.9       62     1013     0.00        0     13.3
    04/22/2018 02:00      1.4       17      2.7       22     60.0     60.4     59.5       60     1013     0.00        0     13.3
    04/22/2018 02:15      0.9       16      1.9       30     59.5     60.3     59.1       61     1013     0.00        0     13.3
    04/22/2018 02:30      1.1        6      3.2       75     59.4     59.7     58.9       62     1013     0.00        0     13.3
    04/22/2018 02:45      0.1      339      0.9      295     58.5     59.0     57.9       63     1013     0.00        0     13.3
    04/22/2018 03:00      1.3        7      3.1      343     58.5     59.3     58.0       62     1013     0.00        0     13.3
    04/22/2018 03:15      1.4      274      2.3      234     58.2     59.4     57.2       65     1013     0.00        0     13.3
    04/22/2018 03:30      0.7      290      2.9      254     57.4     57.7     57.0       64     1013     0.00        0     13.3
    04/22/2018 03:45      0.8      255      2.0      254     56.9     57.2     56.5       63     1013     0.00        0     13.3
    04/22/2018 04:00      0.8      296      2.1      336     56.8     56.9     56.5       62     1013     0.00        0     13.3
    04/22/2018 04:15      1.3      300      2.8      257     56.6     56.9     56.2       62     1012     0.00        0     13.3
    04/22/2018 04:30      1.0      296      1.8      329     55.9     56.3     55.5       63     1013     0.00        0     13.3
    04/22/2018 04:45      0.7       72      2.5       90     55.5     55.9     55.2       63     1013     0.00        0     13.3
    04/22/2018 05:00      1.8       50      4.8       38     56.6     57.4     55.6       62     1013     0.00        0     13.3
    04/22/2018 05:15      0.8      346      2.6       46     57.0     57.5     56.3       64     1013     0.00        1     13.3
    04/22/2018 05:30      0.1      351      1.0      308     55.9     56.6     55.3       66     1013     0.00        8     13.3
    04/22/2018 05:45      0.2       82      1.1       91     55.4     55.6     55.2       67     1013     0.00       16     13.3
    04/22/2018 06:00      0.4      141      1.8       95     55.5     55.8     55.2       68     1013     0.00       27     13.4
    04/22/2018 06:15      0.7      242      1.9      271     56.4     57.8     55.7       66     1013     0.00       90     13.3
    04/22/2018 06:30      0.3      328      1.8      343     59.7     61.2     57.8       57     1013     0.00      124     13.3
    04/22/2018 06:45      0.4       92      3.0       88     62.7     64.8     61.0       50     1013     0.00      189     13.3
    04/22/2018 07:00      0.8       69      2.9       80     65.3     67.0     64.4       46     1013     0.00      242     13.2
    04/22/2018 07:15      0.3       97      1.2       79     67.8     68.8     66.8       44     1013     0.00      308     13.2
    04/22/2018 07:30      0.4      163      1.7      193     67.8     68.9     67.3       39     1013     0.00      359     13.2
    04/22/2018 07:45      1.1      160      2.4      177     70.0     70.8     68.9       37     1013     0.00      379     13.1
    04/22/2018 08:00      1.0      161      2.3      161     70.3     71.4     69.6       34     1013     0.00      452     13.1
    04/22/2018 08:15      1.6      173      3.6      137     72.4     73.2     71.3       32     1013     0.00      492     13.1
    04/22/2018 08:30      2.1      168      4.0      152     73.7     74.5     72.9       30     1013     0.00      546     13.1
    04/22/2018 08:45      2.1      165      4.6      138     74.6     75.8     73.3       27     1013     0.00      588     13.0
    04/22/2018 09:00      1.5      167      4.3      141     76.2     76.9     75.6       27     1013     0.00      631     13.0
    04/22/2018 09:15      1.6      216      3.9      162     76.8     78.3     75.7       27     1013     0.00      670     13.0
    04/22/2018 09:30      1.3      186      3.5      145     77.3     77.9     76.8       25     1013     0.00      705     13.0
    04/22/2018 09:45      1.5      109      3.8       86     79.1     79.8     77.9       23     1013     0.00      739     13.0
    04/22/2018 10:00      1.8      137      4.7      157     80.5     81.7     79.0       23     1013     0.00      768     13.0
    04/22/2018 10:15      1.8      204      4.6      155     82.2     82.9     81.2       23     1013     0.00      798     13.0
    04/22/2018 10:30      2.6      138      6.1      168     83.6     84.8     82.6       18     1012     0.00      822     12.9
    04/22/2018 10:45      2.5      159      6.0      170     83.5     85.0     82.5       18     1012     0.00      841     12.9
    04/22/2018 11:00      2.6      149      5.9      180     84.5     85.4     83.6       15     1012     0.00      857     12.9
    04/22/2018 11:15      3.2      145      7.9      162     85.6     86.3     85.1       14     1012     0.00      871     12.9
    04/22/2018 11:30      2.6      201      6.7      244     85.9     86.3     85.5       17     1012     0.00      873     12.9
    04/22/2018 11:45      2.5      219      7.5      201     86.4     87.1     85.7       15     1012     0.00      878     12.9
    04/22/2018 12:00      2.5      308      6.4      338     86.7     87.2     86.2       16     1012     0.00      879     12.9
    04/22/2018 12:15      2.8      161      8.9      162     88.6     89.5     87.2       17     1012     0.00      877     12.9
    04/22/2018 12:30      4.5      142     10.0      155     88.7     89.3     88.3       19     1012     0.00      866     12.9
    04/22/2018 12:45      5.3      146     11.3      142     88.2     89.3     87.5       16     1011     0.00      855     12.9
    04/22/2018 13:00      4.7      127     11.5      160     88.0     88.4     87.5       16     1011     0.00      838     12.9
    04/22/2018 13:15      4.0      129     10.9      154     87.3     87.9     86.5       17     1011     0.00      829     12.9
    04/22/2018 13:30      3.3      248      9.6      256     87.1     88.0     86.4       15     1011     0.00      817     12.9
    04/22/2018 13:45      6.8      277     14.2      263     87.6     88.0     87.0       15     1011     0.00      796     12.9
    04/22/2018 14:00      7.7      276     15.7      240     86.9     87.3     86.6       16     1011     0.00      769     12.9
    04/22/2018 14:15      6.5      267     13.8      249     87.4     87.9     86.6       16     1011     0.00      743     12.9
    04/22/2018 14:30      7.4      280     17.1      273     85.8     86.7     85.1       16     1011     0.00      710     12.9
    04/22/2018 14:45      7.5      268     13.4      277     85.5     86.3     85.0       15     1011     0.00      675     12.9
    04/22/2018 15:00      7.2      270     14.2      247     85.3     86.0     84.8       15     1011     0.00      638     12.9
    04/22/2018 15:15      5.7      285     12.4      300     85.2     85.8     84.7       15     1011     0.00      581     12.9
    04/22/2018 15:30      6.3      258     14.3      277     85.5     86.0     85.1       14     1011     0.00      554     12.9
    04/22/2018 15:45      5.5      279     13.3      250     85.3     85.7     84.8       14     1011     0.00      513     12.9
    04/22/2018 16:00      5.2      268     10.3      247     85.4     86.0     84.9       14     1011     0.00      466     12.9
    04/22/2018 16:15      6.0      269     12.8      269     85.0     85.5     84.3       15     1011     0.00      417     12.9
    04/22/2018 16:30      5.2      278     11.2      243     83.9     84.6     83.4       16     1011     0.00      365     12.9
    04/22/2018 16:45      4.8      277      8.8      257     83.6     83.8     83.2       16     1011     0.00      315     12.9
    04/22/2018 17:00      5.3      279     11.1      255     82.6     83.4     82.0       17     1011     0.00      266     12.9
    04/22/2018 17:15      5.2      273     11.0      250     81.7     82.1     81.1       17     1011     0.00      214     12.9
    04/22/2018 17:30      4.9      284      9.1      306     80.6     81.2     79.8       20     1011     0.00      165     12.9
    04/22/2018 17:45      4.1      285      8.1      289     79.7     80.1     79.0       19     1011     0.00      120     13.0
    04/22/2018 18:00      4.0      291      7.6      292     78.5     79.2     78.0       21     1011     0.00       75     13.0
    04/22/2018 18:15      4.0      274      8.9      258     77.5     78.2     77.0       20     1011     0.00       33     13.0
    04/22/2018 18:30      3.6      276      8.1      245     76.3     77.2     75.4       22     1011     0.00       10     13.0
    04/22/2018 18:45      2.9      277      5.7      265     74.9     75.5     74.3       24     1011     0.00        2     13.0
    04/22/2018 19:00      2.3      284      4.7      286     73.9     74.4     73.5       23     1012     0.00        0     13.1
    04/22/2018 19:15      2.1      273      4.0      293     73.3     73.8     72.8       25     1012     0.00        0     13.1
    04/22/2018 19:30      1.9      265      4.5      247     72.5     73.0     71.8       27     1012     0.00        0     13.1
    04/22/2018 19:45      1.1      290      1.9      294     71.4     72.0     71.0       28     1012     0.00        0     13.1
    04/22/2018 20:00      1.2      282      2.4      295     70.4     71.2     69.7       29     1012     0.00        0     13.1
    04/22/2018 20:15      0.2      305      1.3      316     69.2     69.8     68.6       31     1012     0.00        0     13.1
    04/22/2018 20:30      1.0      258      1.7      276     68.8     69.2     68.3       31     1012     0.00        0     13.2
    04/22/2018 20:45      0.5       86      1.8       64     68.2     68.5     67.9       32     1013     0.00        0     13.2
    04/22/2018 21:00      0.7      293      1.7      319     67.9     68.6     67.3       34     1013     0.00        0     13.2
    04/22/2018 21:15      0.8      230      1.4      166     66.8     67.5     65.9       36     1013     0.00        0     13.2
    04/22/2018 21:30      0.2      137      1.1      102     66.2     66.4     65.9       36     1013     0.00        0     13.2
    04/22/2018 21:45      1.5       78      3.5       64     66.4     66.8     65.9       37     1013     0.00        0     13.2
    04/22/2018 22:00      1.2       53      5.0       69     66.3     66.6     65.9       36     1013     0.00        0     13.2
    04/22/2018 22:15      2.1       77      3.5       68     66.4     66.7     66.0       48     1013     0.00        0     13.2
    04/22/2018 22:30      3.2       75      6.2       88     65.5     66.1     65.0       55     1013     0.00        0     13.2
    04/22/2018 22:45      2.5       60      5.0       61     64.8     65.2     64.3       56     1013     0.00        0     13.2
    04/22/2018 23:00      1.7       61      4.1       76     64.2     64.5     63.8       58     1013     0.00        0     13.2
    04/22/2018 23:15      2.1       76      4.4       80     63.6     64.0     63.3       59     1013     0.00        0     13.2
    04/22/2018 23:30      1.8       48      3.5       14     63.1     63.4     62.8       61     1013     0.00        0     13.2
    04/22/2018 23:45      1.8       27      3.9       27     62.6     63.0     62.2       62     1013     0.00        0     13.2
    04/23/2018 00:00      1.4       79      2.8       63     62.3     62.5     62.0       63     1013     0.00        0     13.3
    04/23/2018 00:15      0.3       89      1.4       55     61.5     62.2     61.0       65     1013     0.00        0     13.3
    04/23/2018 00:30      1.7       47      3.3       32     61.0     61.4     60.5       66     1013     0.00        0     13.3
    04/23/2018 00:45      1.8       58      3.1       54     61.4     61.6     61.1       66     1013     0.00        0     13.3
    04/23/2018 01:00      1.3       95      2.8       63     60.9     61.4     60.2       68     1013     0.00        0     13.3
    04/23/2018 01:15      0.7      100      2.0       67     59.7     60.2     59.4       70     1013     0.00        0     13.3
    04/23/2018 01:30      1.1       55      2.5       65     59.9     60.1     59.6       69     1013     0.00        0     13.3
    04/23/2018 01:45      1.6       44      3.3       47     59.9     60.1     59.7       69     1013     0.00        0     13.3
    04/23/2018 02:00      1.3       51      2.7       29     59.9     60.1     59.7       69     1013     0.00        0     13.3
    04/23/2018 02:15      1.3       73      2.6       72     59.4     59.9     59.0       70     1013     0.00        0     13.3
    04/23/2018 02:30      0.5       96      1.9       62     58.5     59.3     58.1       73     1013     0.00        0     13.3
    04/23/2018 02:45      0.5       12      1.3       44     58.1     58.4     57.9       74     1013     0.00        0     13.3
    04/23/2018 03:00      1.2       25      2.4      325     58.1     58.3     57.9       73     1013     0.00        0     13.3
    04/23/2018 03:15      1.7       45      3.4       26     58.4     58.6     57.9       71     1013     0.00        0     13.3
    04/23/2018 03:30      1.3       43      3.6       32     58.4     58.7     58.1       72     1013     0.00        0     13.3
    04/23/2018 03:45      0.3        7      1.3      319     57.5     58.2     56.8       74     1013     0.00        0     13.3
    04/23/2018 04:00      0.6      143      1.2      139     56.4     56.9     55.8       76     1014     0.00        0     13.3
    04/23/2018 04:15      0.4      242      1.4      316     55.8     56.0     55.6       78     1014     0.00        0     13.3
    04/23/2018 04:30      0.5      319      1.2      314     56.2     56.4     55.8       77     1014     0.00        0     13.3
    04/23/2018 04:45      0.5      352      1.3      354     56.1     56.5     55.7       76     1014     0.00        0     13.3
    04/23/2018 05:00      0.5      133      1.2      125     55.6     56.0     55.3       79     1014     0.00        0     13.3
    04/23/2018 05:15      0.7      139      1.6      149     55.3     55.5     54.9       80     1014     0.00        2     13.3
    04/23/2018 05:30      0.3      351      1.0      353     55.1     55.6     54.7       79     1014     0.00        7     13.4
    04/23/2018 05:45      0.4      307      1.1      320     55.0     55.3     54.9       78     1014     0.00       17     13.4
    04/23/2018 06:00      0.0        0      0.0      302     55.0     55.5     54.7       79     1014     0.00       26     13.4
    04/23/2018 06:15      0.0        0      0.0      302     56.1     57.2     55.3       78     1015     0.00       97     13.3
    04/23/2018 06:30      0.0       63      0.7      278     58.9     60.8     57.0       71     1015     0.00      156     13.3
    04/23/2018 06:45      0.9      185      2.0      192     61.4     63.2     60.8       66     1015     0.00      196     13.3
    04/23/2018 07:00      0.6      112      1.8       50     63.6     64.0     63.1       63     1015     0.00      252     13.2
    04/23/2018 07:15      1.1      163      2.3      156     64.2     65.3     63.6       60     1015     0.00      304     13.2
    04/23/2018 07:30      0.8      161      2.2      175     65.7     66.1     65.2       57     1015     0.00      355     13.2
    04/23/2018 07:45      1.5      151      4.4      144     66.9     67.5     66.0       54     1015     0.00      405     13.2
    04/23/2018 08:00      2.1      184      4.6      181     67.2     67.5     66.7       51     1015     0.00      455     13.1
    04/23/2018 08:15      1.9      180      5.9      142     68.0     69.0     66.8       45     1015     0.00      504     13.1
    04/23/2018 08:30      3.1      163      5.9      157     69.6     70.5     68.9       43     1015     0.00      551     13.1
    04/23/2018 08:45      2.9      129      8.4      149     69.9     70.5     69.2       40     1015     0.00      583     13.1
    04/23/2018 09:00      2.3      152      6.1      180     70.9     71.5     70.3       41     1015     0.00      631     13.1
    04/23/2018 09:15      3.0       79      6.8       89     72.3     73.0     71.5       36     1015     0.00      671     13.0
    04/23/2018 09:30      2.5      122      6.4      128     73.2     74.4     72.4       33     1015     0.00      708     13.0
    04/23/2018 09:45      2.7      115      7.0       77     74.2     75.0     73.6       33     1015     0.00      742     13.0
    04/23/2018 10:00      3.1      107      7.9       92     74.5     75.5     73.7       34     1015     0.00      772     13.0
    04/23/2018 10:15      4.3      100     10.1      140     75.6     76.2     74.8       31     1015     0.00      797     13.0
    04/23/2018 10:30      4.0       91      8.3       89     75.6     76.4     74.8       30     1015     0.00      820     13.0
    04/23/2018 10:45      2.4      110      6.4      146     77.2     78.8     76.0       27     1015     0.00      844     13.0
    04/23/2018 11:00      3.5       94      7.8      197     77.8     78.5     77.1       31     1015     0.00      857     13.0
    04/23/2018 11:15      3.8       92      9.3       70     77.7     78.2     77.2       30     1015     0.00      867     13.0
    04/23/2018 11:30      2.6      127      9.9       79     78.6     79.4     77.4       29     1015     0.00      872     13.0
    04/23/2018 11:45      3.2      104      7.5       80     79.5     80.1     78.5       28     1014     0.00      884     13.0
    04/23/2018 12:00      3.8       96      9.3       70     80.6     81.7     79.7       27     1014     0.00      889     13.0
    04/23/2018 12:15      2.9      105      6.8      176     80.7     81.5     80.0       25     1014     0.00      881     12.9
    04/23/2018 12:30      5.0      186      9.4      194     80.6     81.2     79.8       24     1014     0.00      878     12.9
    04/23/2018 12:45      4.0      165      7.5      189     81.6     82.5     81.0       24     1014     0.00      869     12.9
    04/23/2018 13:00      3.7      169      9.5      148     82.5     83.3     81.7       26     1013     0.00      858     12.9
    04/23/2018 13:15      2.9      159      9.3      150     83.7     84.1     83.2       24     1013     0.00      846     12.9
    04/23/2018 13:30      3.9       98      8.6       84     83.4     84.7     82.8       24     1013     0.00      814     12.9
    04/23/2018 13:45      4.3      117      9.9      163     84.3     84.9     83.5       24     1013     0.00      793     12.9
    04/23/2018 14:00      4.8      107     10.3      102     84.2     85.3     83.5       24     1013     0.00      752     12.9
    04/23/2018 14:15      5.6      124     11.0      180     84.3     85.3     83.6       24     1013     0.00      721     12.9
    04/23/2018 14:30      5.6      150     10.7      145     85.3     86.1     84.4       23     1013     0.00      698     12.9
    04/23/2018 14:45      4.9      102     11.6       94     85.2     85.9     84.6       19     1013     0.00      675     12.9
    04/23/2018 15:00      4.9      112     10.0       82     84.8     85.5     84.1       18     1012     0.00      606     12.9
    04/23/2018 15:15      4.8       94     12.4       97     84.0     84.7     83.5       17     1012     0.00      520     12.9
    04/23/2018 15:30      5.8       81     10.5       89     83.6     84.1     83.2       18     1012     0.00      534     12.9
    04/23/2018 15:45      4.8       88     10.6      101     83.5     84.2     83.1       17     1012     0.00      472     12.9
    04/23/2018 16:00      3.8       93      9.9      116     83.0     83.5     82.4       18     1012     0.00      438     12.9
    04/23/2018 16:15      3.1      106      8.6       57     82.5     83.0     82.0       19     1013     0.00      421     12.9
    04/23/2018 16:30      2.1      124      5.2      151     81.6     82.3     81.1       19     1013     0.00      383     12.9
    04/23/2018 16:45      2.0      246      7.1      259     82.1     82.6     81.6       24     1012     0.00      335     12.9
    04/23/2018 17:00      2.4      263      5.5      295     81.3     82.1     80.3       23     1012     0.00      286     12.9
    04/23/2018 17:15      2.4      267      5.7      249     80.7     81.3     80.1       23     1012     0.00      236     12.9
    04/23/2018 17:30      3.5      274      6.6      278     79.6     80.6     78.9       25     1012     0.00      184     12.9
    04/23/2018 17:45      4.1      256      7.8      254     78.3     79.0     77.5       25     1013     0.00      103     12.9
    04/23/2018 18:00      3.9      274      8.9      259     77.0     77.6     76.0       28     1013     0.00       83     13.0
    04/23/2018 18:15      3.5      257      7.4      251     75.3     76.2     74.3       29     1013     0.00       30     13.0
    04/23/2018 18:30      1.3      249      5.7      294     73.5     74.3     72.5       33     1013     0.00       10     13.0
    04/23/2018 18:45      2.6      257      5.7      255     71.5     72.5     70.8       35     1013     0.00        3     13.1
    04/23/2018 19:00      2.7      257      5.5      243     70.2     71.0     69.4       40     1013     0.00        0     13.1
    04/23/2018 19:15      0.7      170      1.9      258     68.9     69.5     68.2       42     1013     0.00        0     13.1
    04/23/2018 19:30      2.2      104      3.9       66     68.1     68.5     67.8       44     1014     0.00        0     13.1
    04/23/2018 19:45      2.4      104      4.8       99     67.7     68.1     67.0       46     1014     0.00        0     13.1
    04/23/2018 20:00      3.3       95      5.9       93     66.6     67.2     66.0       48     1014     0.00        0     13.2
    04/23/2018 20:15      2.3       89      5.0       98     65.7     66.2     65.1       51     1014     0.00        0     13.2
    04/23/2018 20:30      2.0       83      3.6       83     65.0     65.4     64.7       53     1014     0.00        0     13.2
    04/23/2018 20:45      2.0       81      3.6       78     64.4     64.7     64.0       55     1015     0.00        0     13.2
    04/23/2018 21:00      1.0       98      3.2       95     63.5     64.2     62.8       58     1015     0.00        0     13.2
    04/23/2018 21:15      0.6       86      2.3       38     62.5     63.1     62.0       61     1015     0.00        0     13.2
    04/23/2018 21:30      1.1      142      3.3      123     61.5     62.1     60.8       63     1015     0.00        0     13.2
    04/23/2018 21:45      1.9      134      3.4      128     60.9     61.3     60.6       64     1015     0.00        0     13.2
    04/23/2018 22:00      0.8       94      2.9       85     60.9     61.2     60.5       65     1015     0.00        0     13.2
    04/23/2018 22:15      1.4       77      3.3       63     60.7     61.1     60.5       65     1015     0.00        0     13.3
    04/23/2018 22:30      2.0       71      3.6       60     61.0     61.2     60.7       64     1015     0.00        0     13.3
    04/23/2018 22:45      1.9       75      3.9       67     60.7     60.9     60.4       64     1015     0.00        0     13.3
    04/23/2018 23:00      2.7       72      5.8       72     60.3     60.7     60.0       64     1015     0.00        0     13.3
    04/23/2018 23:15      1.9       59      3.2       52     60.0     60.2     59.7       66     1015     0.00        0     13.3
    04/23/2018 23:30      1.7       69      3.5       84     59.6     60.1     59.3       65     1015     0.00        0     13.3
    04/23/2018 23:45      1.9       68      3.6       91     59.3     59.5     59.1       64     1015     0.00        0     13.3
    04/24/2018 00:00      1.6       57      2.6       35     59.2     59.5     58.9       65     1015     0.00        0     13.3
    04/24/2018 00:15      0.6      135      2.2       43     58.6     59.4     57.8       68     1015     0.00        0     13.3
    04/24/2018 00:30      0.1      156      0.7      155     57.4     58.0     57.0       70     1015     0.00        0     13.3
    04/24/2018 00:45      0.5       60      1.6       66     57.0     57.2     56.8       71     1015     0.00        0     13.3
    04/24/2018 01:00      0.7       72      1.7       47     56.9     57.3     56.5       72     1015     0.00        0     13.3
    04/24/2018 01:15      1.5       70      2.7       68     57.4     58.0     56.7       70     1014     0.00        0     13.3
    04/24/2018 01:30      1.1       55      2.6       69     57.3     57.8     56.8       71     1014     0.00        0     13.3
    04/24/2018 01:45      0.6       75      1.5       65     56.9     57.3     56.3       72     1014     0.00        0     13.3
    04/24/2018 02:00      1.9      149      3.6      156     55.7     56.5     55.2       76     1014     0.00        0     13.3
    04/24/2018 02:15      1.5      170      3.2      189     55.4     55.7     55.0       76     1014     0.00        0     13.3
    04/24/2018 02:30      1.0      297      1.9      337     55.3     55.5     55.0       75     1014     0.00        0     13.3
    04/24/2018 02:45      0.5      313      1.3      316     55.3     55.5     54.9       75     1014     0.00        0     13.3
    04/24/2018 03:00      0.8       67      1.6       98     54.9     55.2     54.6       75     1014     0.00        0     13.3
    04/24/2018 03:15      0.6       83      1.9       41     54.6     54.9     54.2       77     1014     0.00        0     13.4
    04/24/2018 03:30      1.1      100      2.6       48     54.3     54.6     53.9       78     1014     0.00        0     13.4
    04/24/2018 03:45      0.9       55      2.4       64     54.7     55.0     54.4       76     1014     0.00        0     13.4
    04/24/2018 04:00      0.6      117      2.0       33     54.2     54.7     53.5       78     1014     0.00        0     13.4
    04/24/2018 04:15      0.3      192      1.5      189     53.4     53.8     52.9       78     1014     0.00        0     13.4
    04/24/2018 04:30      2.3      203      4.6      197     53.3     53.7     52.8       79     1014     0.00        0     13.4
    04/24/2018 04:45      1.3      298      2.9      288     53.3     53.6     53.0       78     1014     0.00        0     13.4
    04/24/2018 05:00      0.3      140      1.5      146     53.2     53.4     52.9       79     1014     0.00        0     13.4
    04/24/2018 05:15      0.9       49      3.6       85     53.1     53.6     52.9       78     1014     0.00        2     13.4
    04/24/2018 05:30      1.7       77      3.1       50     53.7     54.0     53.5       78     1014     0.00        8     13.4
    04/24/2018 05:45      1.3       78      2.6       64     53.8     54.0     53.5       78     1015     0.00       21     13.4
    04/24/2018 06:00      1.3       67      3.2       68     54.0     54.5     53.6       78     1015     0.00       31     13.4
    04/24/2018 06:15      0.7       75      2.6       64     55.3     56.5     54.3       74     1015     0.00       99     13.4
    04/24/2018 06:30      0.9       46      2.4       92     57.5     58.8     56.4       69     1015     0.00      149     13.3
    04/24/2018 06:45      1.3       87      3.3       77     59.2     59.7     58.6       67     1015     0.00      197     13.3
    04/24/2018 07:00      1.6      152      2.5       76     59.5     60.3     58.8       66     1015     0.00      246     13.3
    04/24/2018 07:15      1.2      159      2.3      188     60.8     61.6     59.8       63     1015     0.00      318     13.2
    04/24/2018 07:30      1.1       73      3.2       92     62.0     62.6     61.1       60     1015     0.00      351     13.2
    04/24/2018 07:45      1.9      129      4.6      152     63.1     63.6     62.5       57     1015     0.00      402     13.2
    04/24/2018 08:00      2.0      155      4.4      162     64.2     65.0     63.2       55     1015     0.00      461     13.2
    04/24/2018 08:15      1.2       96      4.4      103     65.2     66.3     64.1       51     1015     0.00      481     13.1
    04/24/2018 08:30      1.6      114      3.7       92     66.0     66.4     65.6       50     1015     0.00      512     13.1
    04/24/2018 08:45      2.0      150      4.4      163     66.8     67.4     65.8       48     1015     0.00      578     13.1
    04/24/2018 09:00      3.5      166      6.9      153     67.8     68.9     66.7       44     1015     0.00      604     13.1
    04/24/2018 09:15      3.4      176      6.2      174     68.8     69.5     68.3       44     1015     0.00      658     13.1
    04/24/2018 09:30      2.9      176      7.0      163     70.7     71.8     69.5       33     1015     0.00      711     13.1
    04/24/2018 09:45      3.6      147      7.3       79     72.6     73.2     71.8       30     1015     0.00      750     13.0
    04/24/2018 10:00      3.9       81      7.7      101     73.1     74.1     72.4       27     1015     0.00      780     13.0
    04/24/2018 10:15      4.7       94      9.4       72     73.9     74.5     73.1       27     1015     0.00      828     13.0
    04/24/2018 10:30      3.4      106      8.9       73     73.7     74.4     73.1       29     1015     0.00      539     13.0
    04/24/2018 10:45      4.1       89      7.8       90     73.8     75.1     73.1       29     1015     0.00      793     13.0
    04/24/2018 11:00      3.9       95      7.5       59     75.7     76.4     74.9       28     1015     0.00      911     13.0
    04/24/2018 11:15      3.3       93      8.5       78     76.6     77.6     75.9       23     1015     0.00      902     13.0
    04/24/2018 11:30      3.3       95      9.7       79     77.1     77.8     76.6       22     1015     0.00      762     13.0
    04/24/2018 11:45      3.8      128      9.9      160     77.8     78.9     77.0       22     1015     0.00      894     13.0
    04/24/2018 12:00      3.9      106      8.8       61     78.8     79.2     78.0       21     1015     0.00      893     13.0
    04/24/2018 12:15      3.9      138      9.1      129     79.9     80.7     78.8       22     1014     0.00      888     13.0
    04/24/2018 12:30      4.4      129      9.0      127     80.1     80.8     79.5       23     1014     0.00      883     13.0
    04/24/2018 12:45      5.1      136     10.7      157     80.2     80.9     79.7       24     1014     0.00      849     13.0
    04/24/2018 13:00      4.0      132      9.9      108     80.5     81.1     79.7       22     1014     0.00      857     13.0
    04/24/2018 13:15      5.7       99     11.1      143     80.6     81.2     80.1       19     1014     0.00      839     12.9
    04/24/2018 13:30      5.1      129     10.0       90     80.7     81.7     79.7       16     1014     0.00      818     12.9
    04/24/2018 13:45      4.6      132      9.9      164     81.1     81.8     80.7       17     1014     0.00      799     12.9
    04/24/2018 14:00      4.3      123     10.2       84     81.1     81.5     80.6       18     1014     0.00      775     12.9
    04/24/2018 14:15      4.8      107     11.3       85     80.5     81.1     79.9       20     1014     0.00      744     12.9
    04/24/2018 14:30      4.2      109     10.2      119     80.7     81.1     80.4       17     1014     0.00      712     12.9
    04/24/2018 14:45      4.0      111     10.4       93     81.0     81.4     80.6       17     1013     0.00      674     12.9
    04/24/2018 15:00      3.7      104      8.7       69     81.0     81.4     80.7       16     1013     0.00      635     12.9
    04/24/2018 15:15      4.3      102      9.4       44     80.9     81.5     80.4       17     1013     0.00      581     12.9
    04/24/2018 15:30      4.0      113      9.6       89     80.7     81.2     80.0       17     1013     0.00      561     12.9
    04/24/2018 15:45      4.2      112      8.6       81     80.5     81.0     80.0       17     1013     0.00      523     12.9
    04/24/2018 16:00      5.0      100      8.4       95     79.8     80.4     79.2       17     1013     0.00      479     12.9
    04/24/2018 16:15      5.2       99     11.8       94     79.6     80.1     78.6       19     1013     0.00      427     12.9
    04/24/2018 16:30      4.1      103      8.2      125     79.2     79.6     78.7       18     1013     0.00      376     12.9
    04/24/2018 16:45      2.7      124      9.1      143     79.3     79.7     79.0       17     1013     0.00      330     12.9
    04/24/2018 17:00      2.9      265      5.7      244     78.5     79.2     78.0       15     1013     0.00      282     12.9
    04/24/2018 17:15      3.0      257      7.1      264     78.7     79.1     78.0       13     1013     0.00      207     12.9
    04/24/2018 17:30      3.5      257      6.6      253     77.2     78.2     76.4       13     1014     0.00      128     13.0
    04/24/2018 17:45      2.6      221      5.1      250     76.0     76.7     75.5       14     1014     0.00      117     13.0
    04/24/2018 18:00      2.7      222      5.6      251     75.4     75.8     74.8       14     1014     0.00       94     13.0
    04/24/2018 18:15      3.1      242      7.0      259     74.4     74.9     73.7       16     1014     0.00       44     13.0
    04/24/2018 18:30      2.2      252      5.0      257     72.9     73.8     72.0       17     1014     0.00       13     13.0
    04/24/2018 18:45      1.4      232      2.6      253     71.2     72.2     70.0       21     1014     0.00        3     13.1
    04/24/2018 19:00      0.8      258      2.8      259     69.5     70.2     68.8       21     1014     0.00        0     13.1
    04/24/2018 19:15      0.7      161      2.4      254     68.7     69.1     68.4       21     1014     0.00        0     13.1
    04/24/2018 19:30      0.9        4      2.5      157     68.6     69.0     67.9       24     1014     0.00        0     13.1
    04/24/2018 19:45      1.8      116      4.6       61     67.7     67.9     67.4       36     1014     0.00        0     13.2
    04/24/2018 20:00      1.5      135      3.5      100     67.0     67.9     66.0       38     1014     0.00        0     13.2
    04/24/2018 20:15      2.1       62      3.7       49     66.5     67.0     65.9       36     1015     0.00        0     13.2
    04/24/2018 20:30      1.3       83      2.8       94     66.4     67.0     65.7       39     1015     0.00        0     13.2
    04/24/2018 20:45      0.8       38      2.1       57     65.1     65.9     64.5       39     1015     0.00        0     13.2
    04/24/2018 21:00      1.0      130      2.7      159     63.8     64.7     63.1       43     1015     0.00        0     13.2
    04/24/2018 21:15      1.2      141      2.6      142     63.3     63.6     63.0       44     1015     0.00        0     13.2
    04/24/2018 21:30      0.7       90      2.4      145     62.7     63.0     62.4       44     1015     0.00        0     13.2
    04/24/2018 21:45      2.1       80      3.6       67     63.6     64.0     62.7       44     1015     0.00        0     13.2
    04/24/2018 22:00      2.4       66      4.9       66     63.4     63.8     62.8       47     1015     0.00        0     13.2
    04/24/2018 22:15      2.3       59      5.3       55     62.8     63.0     62.4       50     1015     0.00        0     13.3
    04/24/2018 22:30      2.1       63      4.0       65     62.0     62.4     61.5       52     1016     0.00        0     13.3
    04/24/2018 22:45      3.0       54      4.6       69     61.3     61.8     60.9       52     1016     0.00        0     13.3
    04/24/2018 23:00      3.1       48      5.8       47     60.8     61.1     60.4       53     1016     0.00        0     13.3
    04/24/2018 23:15      2.3       60      5.1       47     60.3     60.7     59.9       55     1016     0.00        0     13.3
    04/24/2018 23:30      2.4       56      4.3       63     59.8     60.1     59.6       56     1016     0.00        0     13.3
    04/24/2018 23:45      2.4       48      4.5       51     59.6     59.9     59.5       57     1016     0.00        0     13.3
    04/25/2018 00:00      2.0       56      3.8       33     59.4     59.7     59.0       59     1016     0.00        0     13.3
    04/25/2018 00:15      1.6       50      2.8       40     58.9     59.2     58.5       61     1016     0.00        0     13.3
    04/25/2018 00:30      1.2       63      2.9       59     58.5     58.8     58.3       62     1016     0.00        0     13.3
    04/25/2018 00:45      1.8       57      3.8       37     58.4     58.6     58.1       63     1016     0.00        0     13.3
    04/25/2018 01:00      1.8       72      3.1       75     58.0     58.3     57.6       64     1016     0.00        0     13.3
    04/25/2018 01:15      1.4       76      2.4       84     57.4     57.9     56.8       66     1016     0.00        0     13.3
    04/25/2018 01:30      2.1       64      4.3       66     56.9     57.1     56.6       67     1016     0.00        0     13.3
    04/25/2018 01:45      2.5       63      4.1       56     56.7     57.0     56.3       69     1016     0.00        0     13.3
    04/25/2018 02:00      2.4       69      4.2       68     56.4     56.6     56.1       70     1016     0.00        0     13.3
    04/25/2018 02:15      2.4       79      4.3       73     56.2     56.4     56.0       71     1016     0.00        0     13.3
    04/25/2018 02:30      1.8       91      4.5       66     56.2     56.4     56.0       72     1016     0.00        0     13.3
    04/25/2018 02:45      2.3       79      4.3       78     56.0     56.3     55.7       73     1016     0.00        0     13.3
    04/25/2018 03:00      1.5      111      4.5       93     55.5     56.0     55.0       75     1016     0.00        0     13.3
    04/25/2018 03:15      2.0       93      3.6       93     54.9     55.2     54.6       78     1016     0.00        0     13.3
    04/25/2018 03:30      2.0       87      3.7       99     54.5     54.8     54.2       79     1016     0.00        0     13.3
    04/25/2018 03:45      2.5       76      4.4       70     54.2     54.5     54.0       80     1016     0.00        0     13.3
    04/25/2018 04:00      1.5       97      3.6       85     54.0     54.3     53.6       81     1016     0.00        0     13.3
    04/25/2018 04:15      1.3      144      3.2      155     53.4     54.0     53.0       81     1016     0.00        0     13.3
    04/25/2018 04:30      0.7      116      1.9      163     52.7     53.1     52.4       83     1016     0.00        0     13.4
    04/25/2018 04:45      1.7      151      2.9      156     52.2     52.5     51.8       84     1016     0.00        0     13.4
    04/25/2018 05:00      1.6      138      2.7      149     52.0     52.3     51.8       85     1016     0.00        0     13.4
    04/25/2018 05:15      1.6      152      2.4      149     51.9     52.1     51.7       86     1016     0.00        3     13.4
    04/25/2018 05:30      2.2      150      3.3      149     52.1     52.3     51.9       87     1016     0.00       14     13.4
    04/25/2018 05:45      1.6      154      3.4      153     52.3     52.6     51.9       87     1016     0.00       22     13.4
    04/25/2018 06:00      1.5      152      2.5      159     52.6     52.9     52.3       86     1016     0.00       27     13.4
    04/25/2018 06:15      1.4      149      3.8      153     52.9     53.2     52.6       86     1016     0.00       36     13.3
    04/25/2018 06:30      0.7      146      2.8       47     53.3     53.9     52.9       85     1017     0.00       82     13.3
    04/25/2018 06:45      1.7       40      3.3       87     54.1     54.9     53.6       82     1017     0.00      157     13.3
    04/25/2018 07:00      2.2      100      4.8      142     55.3     56.1     54.6       76     1017     0.00      291     13.3
    04/25/2018 07:15      2.4       77      5.0       93     56.4     57.0     55.7       73     1017     0.00      322     13.3
    04/25/2018 07:30      1.9      131      3.6      185     57.5     58.1     56.7       71     1017     0.00      345     13.2
    04/25/2018 07:45      1.3      162      3.9      185     59.0     60.4     57.4       65     1017     0.00      383     13.2
    04/25/2018 08:00      1.0      103      2.7      163     60.5     61.4     59.9       63     1017     0.00      445     13.2
    04/25/2018 08:15      1.4      247      2.9      201     61.4     62.1     60.9       59     1017     0.00      526     13.2
    04/25/2018 08:30      0.9       13      3.0      176     63.5     64.0     62.1       55     1017     0.00      551     13.1
    04/25/2018 08:45      1.9      156      6.0      165     64.1     65.0     63.4       52     1017     0.00      582     13.1
    04/25/2018 09:00      2.6       99      6.1      154     65.0     65.8     64.0       49     1017     0.00      621     13.1
    04/25/2018 09:15      3.3      151      7.9      156     65.7     66.9     64.8       47     1017     0.00      662     13.1
    04/25/2018 09:30      2.4      137      6.6      169     66.9     68.1     66.1       45     1017     0.00      695     13.1
    04/25/2018 09:45      2.1      107      6.4      139     68.0     68.4     67.5       40     1017     0.00      731     13.1
    04/25/2018 10:00      2.4      128      5.6      155     69.5     70.6     68.2       37     1017     0.00      763     13.1
    04/25/2018 10:15      2.9       87      5.7       59     70.2     70.6     69.7       40     1017     0.00      788     13.1
    04/25/2018 10:30      2.1      120      4.6      126     70.9     71.8     70.3       35     1017     0.00      815     13.0
    04/25/2018 10:45      2.8      125      5.9      154     72.4     73.4     71.5       33     1017     0.00      828     13.0
    04/25/2018 11:00      3.0      105      6.3       82     73.1     73.9     72.2       30     1017     0.00      850     13.0
    04/25/2018 11:15      2.2      188      6.8      181     74.4     75.0     73.3       30     1017     0.00      860     13.0
    04/25/2018 11:30      3.1      148      7.6      162     75.8     76.8     74.4       29     1017     0.00      881     13.0
    04/25/2018 11:45      2.6      176      5.9      133     76.2     76.8     75.5       28     1016     0.00      883     13.0
    04/25/2018 12:00      3.8      180      8.2      166     76.5     77.4     75.9       32     1016     0.00      882     13.0
    04/25/2018 12:15      4.3      138     10.0      139     77.4     78.5     76.7       29     1016     0.00      873     13.0
    04/25/2018 12:30      3.2       95      8.5      134     77.7     78.8     77.2       29     1016     0.00      869     13.0
    04/25/2018 12:45      4.1      126     10.7      154     77.8     78.8     77.0       30     1016     0.00      865     13.0
    04/25/2018 13:00      4.8      136     10.3      151     78.7     79.3     78.1       30     1016     0.00      847     13.0
    04/25/2018 13:15      4.2      121      9.2      152     78.8     79.7     77.8       27     1016     0.00      840     13.0
    04/25/2018 13:30      4.0      121      8.4      149     78.3     78.7     78.0       26     1015     0.00      811     13.0
    04/25/2018 13:45      4.6      125     11.0      144     78.8     79.4     78.4       25     1015     0.00      788     12.9
    04/25/2018 14:00      4.9      114     10.5      135     78.5     79.2     77.9       25     1015     0.00      760     12.9
    04/25/2018 14:15      4.7      115     11.2      117     78.7     79.2     78.1       24     1015     0.00      731     12.9
    04/25/2018 14:30      5.0      107     10.8       77     78.6     79.0     78.1       24     1015     0.00      702     12.9
    04/25/2018 14:45      4.3      105      8.6      111     78.8     79.5     78.4       23     1015     0.00      668     12.9
    04/25/2018 15:00      4.2      115      8.0       88     79.7     80.6     78.9       22     1015     0.00      636     12.9
    04/25/2018 15:15      4.5      105      9.0       94     80.0     80.7     79.4       22     1015     0.00      576     12.9
    04/25/2018 15:30      4.3      102     11.2       98     79.7     80.3     79.3       22     1015     0.00      553     12.9
    04/25/2018 15:45      6.3       85     10.1       77     78.8     79.4     78.4       19     1014     0.00      506     12.9
    04/25/2018 16:00      4.4      113      9.3      101     79.2     79.6     78.7       18     1014     0.00      460     12.9
    04/25/2018 16:15      4.3       96      9.5       90     78.9     79.5     78.3       16     1014     0.00      413     12.9
    04/25/2018 16:30      5.5       94     10.2       89     77.7     78.6     77.2       16     1014     0.00      363     12.9
    04/25/2018 16:45      5.0       97     11.5       92     77.3     77.8     76.9       16     1014     0.00      314     12.9
    04/25/2018 17:00      3.6       90      7.0       84     77.4     77.7     77.0       17     1014     0.00      266     13.0
    04/25/2018 17:15      3.6       97      7.4       91     77.4     77.9     77.1       18     1014     0.00      216     13.0
    04/25/2018 17:30      1.7      157      4.3      126     77.2     77.4     77.0       18     1014     0.00      168     13.0
    04/25/2018 17:45      3.0      277      5.6      298     76.1     77.5     75.2       26     1014     0.00      124     13.0
    04/25/2018 18:00      3.0      275      6.7      250     74.8     75.5     73.8       28     1014     0.00       80     13.0
    04/25/2018 18:15      3.6      265      7.6      241     72.9     74.0     72.1       29     1014     0.00       36     13.0
    04/25/2018 18:30      3.7      258      7.3      251     71.5     72.3     70.7       31     1014     0.00       11     13.1
    04/25/2018 18:45      2.7      266      7.1      241     70.1     70.8     69.6       33     1014     0.00        3     13.1
    04/25/2018 19:00      1.0      232      2.9      218     68.9     69.8     68.1       35     1015     0.00        0     13.1
    04/25/2018 19:15      1.4      252      4.6      260     68.0     68.3     67.4       37     1015     0.00        0     13.1
    04/25/2018 19:30      1.6      267      4.0      242     66.9     67.5     66.6       38     1015     0.00        0     13.1
    04/25/2018 19:45      1.3      279      3.4      257     66.9     67.2     66.4       40     1015     0.00        0     13.2
    04/25/2018 20:00      1.3       56      3.7       54     66.6     67.0     66.2       32     1015     0.00        0     13.2
    04/25/2018 20:15      1.8       83      4.2       74     66.7     67.0     66.2       31     1015     0.00        0     13.2
    04/25/2018 20:30      1.7       99      4.6       97     65.8     66.3     65.2       35     1015     0.00        0     13.2
    04/25/2018 20:45      1.5      110      3.7       82     64.9     65.5     64.3       39     1015     0.00        0     13.2
    04/25/2018 21:00      2.3       80      4.1       66     64.2     64.5     63.7       41     1015     0.00        0     13.2
    04/25/2018 21:15      1.6       74      3.6       83     63.5     63.9     63.2       44     1015     0.00        0     13.2
    04/25/2018 21:30      1.4       92      4.1       67     63.0     63.4     62.6       45     1015     0.00        0     13.2